createdAt,value
2023-05-01T00:00:59.300Z,78.62
2023-05-01T00:03:26.215Z,79.07
2023-05-01T00:06:00.144Z,79.54
2023-05-01T00:08:27.524Z,80.20
2023-05-01T00:10:54.323Z,80.54
2023-05-01T00:13:23.063Z,80.87
2023-05-01T00:15:50.723Z,81.44
2023-05-01T00:18:17.498Z,81.52
2023-05-01T00:20:44.092Z,81.92
2023-05-01T00:23:12.468Z,81.82
2023-05-01T00:25:39.525Z,82.18
2023-05-01T00:28:09.301Z,80.38
2023-05-01T00:30:36.652Z,80.57
2023-05-01T00:33:03.365Z,80.59
2023-05-01T00:35:30.779Z,81.74
2023-05-01T00:37:57.519Z,80.89
2023-05-01T00:40:24.612Z,80.73
2023-05-01T00:42:51.304Z,80.27
2023-05-01T00:45:18.179Z,80.13
2023-05-01T00:47:44.992Z,79.37
2023-05-01T00:50:11.973Z,79.72
2023-05-01T00:52:39.539Z,79.96
2023-05-01T00:55:06.844Z,80.19
2023-05-01T00:57:33.629Z,80.09
2023-05-01T01:00:00.366Z,80.31
2023-05-01T01:02:27.267Z,79.45
2023-05-01T01:04:54.431Z,78.00
2023-05-01T01:07:40.104Z,79.00
2023-05-01T01:10:21.476Z,79.75
2023-05-01T01:13:07.327Z,79.84
2023-05-01T01:15:38.821Z,79.52
2023-05-01T01:18:12.288Z,77.97
2023-05-01T01:21:14.070Z,78.02
2023-05-01T01:24:13.804Z,77.81
2023-05-01T01:27:08.657Z,76.82
2023-05-01T01:29:54.017Z,76.52
2023-05-01T01:32:31.627Z,76.46
2023-05-01T01:35:12.773Z,75.98
2023-05-01T01:37:56.602Z,76.35
2023-05-01T01:40:28.144Z,75.72
2023-05-01T01:43:23.227Z,75.54
2023-05-01T01:46:17.721Z,75.61
2023-05-01T01:48:48.770Z,75.76
2023-05-01T01:51:19.334Z,76.01
2023-05-01T01:53:52.579Z,75.66
2023-05-01T01:56:22.039Z,75.90
2023-05-01T01:58:51.509Z,76.26
2023-05-01T02:01:19.941Z,75.67
2023-05-01T02:03:47.743Z,76.28
2023-05-01T02:06:17.148Z,75.48
2023-05-01T02:08:46.993Z,75.23
2023-05-01T02:11:15.766Z,74.83
2023-05-01T02:13:44.824Z,75.22
2023-05-01T02:16:13.275Z,75.19
2023-05-01T02:18:40.915Z,75.63
2023-05-01T02:21:08.264Z,75.33
2023-05-01T02:23:39.517Z,75.87
2023-05-01T02:26:12.319Z,76.14
2023-05-01T02:28:41.453Z,76.08
2023-05-01T02:31:08.911Z,76.49
2023-05-01T02:33:35.661Z,77.09
2023-05-01T02:36:02.620Z,77.04
2023-05-01T02:38:29.784Z,76.92
2023-05-01T02:40:58.277Z,77.63
2023-05-01T02:43:27.734Z,78.21
2023-05-01T02:45:55.549Z,78.20
2023-05-01T02:48:27.593Z,78.33
2023-05-01T02:50:55.819Z,77.91
2023-05-01T02:53:22.751Z,76.98
2023-05-01T02:55:53.761Z,78.18
2023-05-01T02:58:20.794Z,78.31
2023-05-01T03:00:49.999Z,78.84
2023-05-01T03:03:18.156Z,78.72
2023-05-01T03:05:44.800Z,78.98
2023-05-01T03:08:11.609Z,79.20
2023-05-01T03:10:43.213Z,80.34
2023-05-01T03:13:11.156Z,79.38
2023-05-01T03:15:38.724Z,78.76
2023-05-01T03:18:05.664Z,80.04
2023-05-01T03:20:32.509Z,80.83
2023-05-01T03:22:59.294Z,80.22
2023-05-01T03:25:26.027Z,79.95
2023-05-01T03:27:54.952Z,81.30
2023-05-01T03:30:22.696Z,80.64
2023-05-01T03:32:51.645Z,80.22
2023-05-01T03:35:23.426Z,80.88
2023-05-01T03:37:53.059Z,81.18
2023-05-01T03:40:37.884Z,82.14
2023-05-01T03:43:40.053Z,82.77
2023-05-01T03:46:14.429Z,82.49
2023-05-01T03:48:41.998Z,84.22
2023-05-01T03:51:09.007Z,83.92
2023-05-01T03:53:37.622Z,84.64
2023-05-01T03:56:06.417Z,85.67
2023-05-01T03:58:33.107Z,84.16
2023-05-01T04:01:00.871Z,84.71
2023-05-01T04:03:28.654Z,85.29
2023-05-01T04:05:56.255Z,83.41
2023-05-01T04:08:23.214Z,84.88
2023-05-01T04:10:49.923Z,84.34
2023-05-01T04:13:16.781Z,85.89
2023-05-01T04:15:46.874Z,84.83
2023-05-01T04:18:14.309Z,85.51
2023-05-01T04:20:40.997Z,85.90
2023-05-01T04:23:09.493Z,85.81
2023-05-01T04:25:37.112Z,87.04
2023-05-01T04:28:13.293Z,87.36
2023-05-01T04:30:40.098Z,87.35
2023-05-01T04:33:11.325Z,87.40
2023-05-01T04:35:39.567Z,88.05
2023-05-01T04:38:06.899Z,88.68
2023-05-01T04:40:34.204Z,88.00
2023-05-01T04:43:01.112Z,87.24
2023-05-01T04:45:28.452Z,87.86
2023-05-01T04:47:56.013Z,87.54
2023-05-01T04:50:22.784Z,87.86
2023-05-01T04:52:49.919Z,87.68
2023-05-01T04:55:16.713Z,86.48
2023-05-01T04:58:03.551Z,86.72
2023-05-01T05:00:31.317Z,87.26
2023-05-01T05:02:58.412Z,86.40
2023-05-01T05:05:26.053Z,86.10
2023-05-01T05:07:52.982Z,86.13
2023-05-01T05:10:39.893Z,86.42
2023-05-01T05:13:27.763Z,86.13
2023-05-01T05:16:00.093Z,86.05
2023-05-01T05:18:27.464Z,87.17
2023-05-01T05:20:55.055Z,87.30
2023-05-01T05:23:21.683Z,86.69
2023-05-01T05:25:48.347Z,87.50
2023-05-01T05:28:14.944Z,88.12
2023-05-01T05:30:42.565Z,88.05
2023-05-01T05:33:13.443Z,87.87
2023-05-01T05:35:40.261Z,89.99
2023-05-01T05:38:06.924Z,89.29
2023-05-01T05:40:36.608Z,90.02
2023-05-01T05:43:03.399Z,90.85
2023-05-01T05:45:34.524Z,90.13
2023-05-01T05:48:01.813Z,90.56
2023-05-01T05:50:31.086Z,89.71
2023-05-01T05:52:58.379Z,88.11
2023-05-01T05:55:25.804Z,88.26
2023-05-01T05:58:01.536Z,87.92
2023-05-01T06:00:29.143Z,88.56
2023-05-01T06:02:57.964Z,88.53
2023-05-01T06:05:27.864Z,88.87
2023-05-01T06:07:54.950Z,89.07
2023-05-01T06:10:21.564Z,89.26
2023-05-01T06:12:53.885Z,90.17
2023-05-01T06:15:24.815Z,88.74
2023-05-01T06:17:54.057Z,89.51
2023-05-01T06:20:20.706Z,89.52
2023-05-01T06:22:49.860Z,89.63
2023-05-01T06:25:23.111Z,89.63
2023-05-01T06:27:50.762Z,89.16
2023-05-01T06:30:19.783Z,89.78
2023-05-01T06:32:46.964Z,89.93
2023-05-01T06:35:14.577Z,89.53
2023-05-01T06:37:41.239Z,89.77
2023-05-01T06:40:09.778Z,90.23
2023-05-01T06:42:38.686Z,89.91
2023-05-01T06:45:06.910Z,90.13
2023-05-01T06:47:33.957Z,89.96
2023-05-01T06:50:02.894Z,90.14
2023-05-01T06:52:33.347Z,90.06
2023-05-01T06:54:59.930Z,89.98
2023-05-01T06:57:26.961Z,90.13
2023-05-01T06:59:54.240Z,90.05
2023-05-01T07:02:21.301Z,90.13
2023-05-01T07:04:48.003Z,90.37
2023-05-01T07:07:14.770Z,90.77
2023-05-01T07:09:41.400Z,90.59
2023-05-01T07:12:08.729Z,90.32
2023-05-01T07:14:36.065Z,89.65
2023-05-01T07:17:03.372Z,89.50
2023-05-01T07:19:29.995Z,89.43
2023-05-01T07:21:56.769Z,89.70
2023-05-01T07:24:23.401Z,89.41
2023-05-01T07:26:50.059Z,88.96
2023-05-01T07:29:16.761Z,89.14
2023-05-01T07:31:44.208Z,89.65
2023-05-01T07:34:11.486Z,89.16
2023-05-01T07:36:38.619Z,88.83
2023-05-01T07:39:06.495Z,88.16
2023-05-01T07:41:33.298Z,88.68
2023-05-01T07:44:00.204Z,88.60
2023-05-01T07:46:27.598Z,88.49
2023-05-01T07:48:54.544Z,88.54
2023-05-01T07:51:21.649Z,88.61
2023-05-01T07:53:49.339Z,88.16
2023-05-01T07:56:16.274Z,87.49
2023-05-01T07:58:44.003Z,87.79
2023-05-01T08:01:10.862Z,87.57
2023-05-01T08:03:37.989Z,87.31
2023-05-01T08:06:06.369Z,86.13
2023-05-01T08:08:33.063Z,86.65
2023-05-01T08:10:59.671Z,86.71
2023-05-01T08:13:26.307Z,86.44
2023-05-01T08:15:53.148Z,86.48
2023-05-01T08:18:21.065Z,86.45
2023-05-01T08:20:48.672Z,86.63
2023-05-01T08:23:16.584Z,86.56
2023-05-01T08:25:45.047Z,86.43
2023-05-01T08:28:11.713Z,86.18
2023-05-01T08:30:38.349Z,85.65
2023-05-01T08:33:05.086Z,85.80
2023-05-01T08:35:31.693Z,86.27
2023-05-01T08:37:58.320Z,86.03
2023-05-01T08:40:26.043Z,85.69
2023-05-01T08:42:52.872Z,86.02
2023-05-01T08:45:21.509Z,85.81
2023-05-01T08:47:49.330Z,86.58
2023-05-01T08:50:17.806Z,86.36
2023-05-01T08:52:46.146Z,86.46
2023-05-01T08:55:15.193Z,87.03
2023-05-01T08:57:46.790Z,86.75
2023-05-01T09:00:20.964Z,87.82
2023-05-01T09:02:50.003Z,87.93
2023-05-01T09:05:18.051Z,87.66
2023-05-01T09:07:46.604Z,88.44
2023-05-01T09:10:15.422Z,87.91
2023-05-01T09:12:46.093Z,88.05
2023-05-01T09:15:16.040Z,88.29
2023-05-01T09:17:42.854Z,88.47
2023-05-01T09:20:10.558Z,88.31
2023-05-01T09:22:37.394Z,88.22
2023-05-01T09:25:04.357Z,88.76
2023-05-01T09:27:35.774Z,88.00
2023-05-01T09:30:03.389Z,87.72
2023-05-01T09:32:30.094Z,87.63
2023-05-01T09:35:13.526Z,86.98
2023-05-01T09:37:41.026Z,86.53
2023-05-01T09:40:14.246Z,87.44
2023-05-01T09:42:50.036Z,86.44
2023-05-01T09:45:18.939Z,85.98
2023-05-01T09:47:46.706Z,85.70
2023-05-01T09:50:34.644Z,86.26
2023-05-01T09:53:02.711Z,86.13
2023-05-01T09:55:29.333Z,85.78
2023-05-01T09:57:58.787Z,85.55
2023-05-01T10:00:26.401Z,85.68
2023-05-01T10:02:53.387Z,85.42
2023-05-01T10:05:20.318Z,85.38
2023-05-01T10:08:02.201Z,85.18
2023-05-01T10:10:29.402Z,85.29
2023-05-01T10:12:56.111Z,85.55
2023-05-01T10:15:26.732Z,85.21
2023-05-01T10:17:54.703Z,85.08
2023-05-01T10:20:29.284Z,85.38
2023-05-01T10:22:56.478Z,86.01
2023-05-01T10:25:27.495Z,85.64
2023-05-01T10:28:06.703Z,85.69
2023-05-01T10:30:38.093Z,85.41
2023-05-01T10:33:05.428Z,85.71
2023-05-01T10:35:38.402Z,85.10
2023-05-01T10:38:07.744Z,84.76
2023-05-01T10:40:42.470Z,84.69
2023-05-01T10:43:31.086Z,85.10
2023-05-01T10:46:10.090Z,84.87
2023-05-01T10:48:40.101Z,85.17
2023-05-01T10:51:11.200Z,84.68
2023-05-01T10:53:44.726Z,84.15
2023-05-01T10:56:30.207Z,84.38
2023-05-01T10:59:04.856Z,83.87
2023-05-01T11:01:32.976Z,84.29
2023-05-01T11:04:01.920Z,84.95
2023-05-01T11:06:29.299Z,84.95
2023-05-01T11:08:57.131Z,83.88
2023-05-01T11:11:27.000Z,83.59
2023-05-01T11:14:06.612Z,84.49
2023-05-01T11:16:42.372Z,83.59
2023-05-01T11:19:46.171Z,83.97
2023-05-01T11:22:13.638Z,83.06
2023-05-01T11:24:41.392Z,83.07
2023-05-01T11:27:08.937Z,83.56
2023-05-01T11:29:37.513Z,83.39
2023-05-01T11:32:04.427Z,83.27
2023-05-01T11:34:38.971Z,83.84
2023-05-01T11:37:05.700Z,83.19
2023-05-01T11:39:32.429Z,82.78
2023-05-01T11:42:09.835Z,82.63
2023-05-01T11:44:37.418Z,83.10
2023-05-01T11:47:06.659Z,82.61
2023-05-01T11:49:33.451Z,82.38
2023-05-01T11:52:00.200Z,83.17
2023-05-01T11:54:27.037Z,82.64
2023-05-01T11:57:03.742Z,82.06
2023-05-01T11:59:30.699Z,82.40
2023-05-01T12:01:58.239Z,82.19
2023-05-01T12:04:31.577Z,81.99
2023-05-01T12:06:59.298Z,82.45
2023-05-01T12:09:27.383Z,83.17
2023-05-01T12:11:54.527Z,83.49
2023-05-01T12:14:22.334Z,82.38
2023-05-01T12:16:49.555Z,83.70
2023-05-01T12:19:16.555Z,82.76
2023-05-01T12:21:43.208Z,82.06
2023-05-01T12:24:10.513Z,81.39
2023-05-01T12:26:37.868Z,82.20
2023-05-01T12:29:06.828Z,80.94
2023-05-01T12:31:34.048Z,80.97
2023-05-01T12:34:07.758Z,81.65
2023-05-01T12:36:36.685Z,81.30
2023-05-01T12:39:12.549Z,81.14
2023-05-01T12:41:46.093Z,81.29
2023-05-01T12:44:23.137Z,81.02
2023-05-01T12:47:01.147Z,80.22
2023-05-01T12:49:29.701Z,79.49
2023-05-01T12:51:58.218Z,80.27
2023-05-01T12:54:37.746Z,80.88
2023-05-01T12:57:14.815Z,81.64
2023-05-01T12:59:46.224Z,80.86
2023-05-01T13:02:15.789Z,79.56
2023-05-01T13:04:49.862Z,80.29
2023-05-01T13:07:17.744Z,80.22
2023-05-01T13:09:55.819Z,79.57
2023-05-01T13:12:23.411Z,80.53
2023-05-01T13:14:50.875Z,80.50
2023-05-01T13:17:31.599Z,80.79
2023-05-01T13:20:04.055Z,81.11
2023-05-01T13:22:30.664Z,81.13
2023-05-01T13:24:57.528Z,80.99
2023-05-01T13:27:24.514Z,81.42
2023-05-01T13:29:59.453Z,81.11
2023-05-01T13:32:27.154Z,80.61
2023-05-01T13:34:58.208Z,81.86
2023-05-01T13:37:24.810Z,82.24
2023-05-01T13:39:58.257Z,81.85
2023-05-01T13:42:25.209Z,81.33
2023-05-01T13:44:53.808Z,81.58
2023-05-01T13:47:23.209Z,79.43
2023-05-01T13:49:49.907Z,80.78
2023-05-01T13:52:18.954Z,80.35
2023-05-01T13:54:47.041Z,81.52
2023-05-01T13:57:14.575Z,81.66
2023-05-01T13:59:43.624Z,81.20
2023-05-01T14:02:22.489Z,80.25
2023-05-01T14:04:49.364Z,81.06
2023-05-01T14:07:22.618Z,81.15
2023-05-01T14:09:59.715Z,80.38
2023-05-01T14:12:31.298Z,80.79
2023-05-01T14:15:00.040Z,81.08
2023-05-01T14:17:31.707Z,79.74
2023-05-01T14:19:58.528Z,80.11
2023-05-01T14:22:29.899Z,80.31
2023-05-01T14:24:58.689Z,79.12
2023-05-01T14:27:25.726Z,80.13
2023-05-01T14:29:52.360Z,80.26
2023-05-01T14:32:19.012Z,79.30
2023-05-01T14:34:46.135Z,79.91
2023-05-01T14:37:15.091Z,78.37
2023-05-01T14:39:41.968Z,79.73
2023-05-01T14:42:10.424Z,80.19
2023-05-01T14:44:42.213Z,80.41
2023-05-01T14:47:09.521Z,79.72
2023-05-01T14:49:36.072Z,80.47
2023-05-01T14:52:02.859Z,80.63
2023-05-01T14:54:31.585Z,80.87
2023-05-01T14:56:58.147Z,81.27
2023-05-01T14:59:24.879Z,81.34
2023-05-01T15:01:51.567Z,80.88
2023-05-01T15:04:18.998Z,82.35
2023-05-01T15:06:45.739Z,81.09
2023-05-01T15:09:12.794Z,80.82
2023-05-01T15:11:39.365Z,81.40
2023-05-01T15:14:06.516Z,82.19
2023-05-01T15:16:33.202Z,82.61
2023-05-01T15:18:59.887Z,83.62
2023-05-01T15:21:26.484Z,82.71
2023-05-01T15:23:53.117Z,83.06
2023-05-01T15:26:19.805Z,81.57
2023-05-01T15:28:46.498Z,83.48
2023-05-01T15:31:13.132Z,82.30
2023-05-01T15:33:39.762Z,83.00
2023-05-01T15:36:06.681Z,83.76
2023-05-01T15:38:33.334Z,83.52
2023-05-01T15:40:59.918Z,82.38
2023-05-01T15:43:26.553Z,82.20
2023-05-01T15:45:57.517Z,82.42
2023-05-01T15:48:24.404Z,83.30
2023-05-01T15:50:51.060Z,84.03
2023-05-01T15:53:17.723Z,84.25
2023-05-01T15:55:44.263Z,84.40
2023-05-01T15:58:10.969Z,83.43
2023-05-01T16:00:39.759Z,82.28
2023-05-01T16:03:08.382Z,82.22
2023-05-01T16:05:36.954Z,83.08
2023-05-01T16:08:06.554Z,83.12
2023-05-01T16:10:40.605Z,82.88
2023-05-01T16:13:07.635Z,82.40
2023-05-01T16:15:36.162Z,82.86
2023-05-01T16:18:06.526Z,81.59
2023-05-01T16:20:35.944Z,82.89
2023-05-01T16:23:02.984Z,80.96
2023-05-01T16:25:29.621Z,83.00
2023-05-01T16:27:56.197Z,82.43
2023-05-01T16:30:27.568Z,82.79
2023-05-01T16:32:54.243Z,82.23
2023-05-01T16:35:27.252Z,83.22
2023-05-01T16:37:54.795Z,82.27
2023-05-01T16:40:22.736Z,82.36
2023-05-01T16:42:54.026Z,82.81
2023-05-01T16:45:21.189Z,82.51
2023-05-01T16:47:47.893Z,83.71
2023-05-01T16:50:15.105Z,84.84
2023-05-01T16:52:41.842Z,85.42
2023-05-01T16:55:11.781Z,85.16
2023-05-01T16:57:38.670Z,85.38
2023-05-01T17:00:06.896Z,84.91
2023-05-01T17:02:33.806Z,86.15
2023-05-01T17:05:01.878Z,86.25
2023-05-01T17:07:28.577Z,85.10
2023-05-01T17:09:55.179Z,85.58
2023-05-01T17:12:21.912Z,86.00
2023-05-01T17:14:48.481Z,86.79
2023-05-01T17:17:17.527Z,86.87
2023-05-01T17:19:44.213Z,86.69
2023-05-01T17:22:11.003Z,87.46
2023-05-01T17:24:37.698Z,87.73
2023-05-01T17:27:04.369Z,87.66
2023-05-01T17:29:31.018Z,87.83
2023-05-01T17:31:57.763Z,88.09
2023-05-01T17:34:24.497Z,87.74
2023-05-01T17:36:51.128Z,88.25
2023-05-01T17:39:21.750Z,88.59
2023-05-01T17:41:49.388Z,88.83
2023-05-01T17:44:16.185Z,87.36
2023-05-01T17:46:42.835Z,86.69
2023-05-01T17:49:09.448Z,87.45
2023-05-01T17:51:36.006Z,87.87
2023-05-01T17:54:02.738Z,88.19
2023-05-01T17:56:29.383Z,86.95
2023-05-01T17:58:56.616Z,88.09
2023-05-01T18:01:23.259Z,88.80
2023-05-01T18:03:50.026Z,88.19
2023-05-01T18:06:16.869Z,88.21
2023-05-01T18:08:43.634Z,88.29
2023-05-01T18:11:10.318Z,88.99
2023-05-01T18:13:40.654Z,89.08
2023-05-01T18:16:07.459Z,89.13
2023-05-01T18:18:34.037Z,87.86
2023-05-01T18:21:00.629Z,87.21
2023-05-01T18:23:27.249Z,87.60
2023-05-01T18:25:55.994Z,88.20
2023-05-01T18:28:22.726Z,88.95
2023-05-01T18:30:49.376Z,88.48
2023-05-01T18:33:16.139Z,88.90
2023-05-01T18:35:42.900Z,88.60
2023-05-01T18:38:10.431Z,89.42
2023-05-01T18:40:37.880Z,89.63
2023-05-01T18:43:04.750Z,90.13
2023-05-01T18:45:31.442Z,88.88
2023-05-01T18:48:00.626Z,90.00
2023-05-01T18:50:27.577Z,89.88
2023-05-01T18:52:54.241Z,90.42
2023-05-01T18:55:20.968Z,90.71
2023-05-01T18:57:48.437Z,89.76
2023-05-01T19:00:17.651Z,90.29
2023-05-01T19:02:51.234Z,91.25
2023-05-01T19:05:18.573Z,90.89
2023-05-01T19:07:45.361Z,91.04
2023-05-01T19:10:12.048Z,91.27
2023-05-01T19:12:39.443Z,90.92
2023-05-01T19:15:06.684Z,91.05
2023-05-01T19:17:33.941Z,90.27
2023-05-01T19:20:01.043Z,89.62
2023-05-01T19:22:27.927Z,90.93
2023-05-01T19:24:54.758Z,91.08
2023-05-01T19:27:21.412Z,90.80
2023-05-01T19:29:48.132Z,90.29
2023-05-01T19:32:14.864Z,89.51
2023-05-01T19:34:41.719Z,88.88
2023-05-01T19:37:08.376Z,88.33
2023-05-01T19:39:35.068Z,88.66
2023-05-01T19:42:02.227Z,89.91
2023-05-01T19:44:29.093Z,89.66
2023-05-01T19:46:55.729Z,90.27
2023-05-01T19:49:25.003Z,90.73
2023-05-01T19:51:53.799Z,91.56
2023-05-01T19:54:22.714Z,91.14
2023-05-01T19:56:52.757Z,90.98
2023-05-01T19:59:19.847Z,91.74
2023-05-01T20:01:47.061Z,91.66
2023-05-01T20:04:14.001Z,92.20
2023-05-01T20:06:40.714Z,91.30
2023-05-01T20:09:07.617Z,91.28
2023-05-01T20:11:34.584Z,91.87
2023-05-01T20:14:03.536Z,92.27
2023-05-01T20:16:31.123Z,92.16
2023-05-01T20:18:58.484Z,92.59
2023-05-01T20:21:25.821Z,91.34
2023-05-01T20:23:54.428Z,89.62
2023-05-01T20:26:21.198Z,89.82
2023-05-01T20:28:48.905Z,90.09
2023-05-01T20:31:15.873Z,90.12
2023-05-01T20:33:42.779Z,90.28
2023-05-01T20:36:09.656Z,90.47
2023-05-01T20:38:43.007Z,91.58
2023-05-01T20:41:10.050Z,91.62
2023-05-01T20:43:36.861Z,91.98
2023-05-01T20:46:03.461Z,91.89
2023-05-01T20:48:30.195Z,92.69
2023-05-01T20:50:56.924Z,92.02
2023-05-01T20:53:23.562Z,92.46
2023-05-01T20:55:50.440Z,92.53
2023-05-01T20:58:17.026Z,92.22
2023-05-01T21:00:43.782Z,92.44
2023-05-01T21:03:10.624Z,92.72
2023-05-01T21:05:37.230Z,92.66
2023-05-01T21:08:03.821Z,92.55
2023-05-01T21:10:30.473Z,93.20
2023-05-01T21:12:57.823Z,93.27
2023-05-01T21:15:24.765Z,93.99
2023-05-01T21:17:51.419Z,94.02
2023-05-01T21:20:30.601Z,94.51
2023-05-01T21:22:57.360Z,94.46
2023-05-01T21:25:26.945Z,93.52
2023-05-01T21:27:54.344Z,92.80
2023-05-01T21:30:33.349Z,92.56
2023-05-01T21:33:01.532Z,92.36
2023-05-01T21:35:30.145Z,92.13
2023-05-01T21:37:57.794Z,92.17
2023-05-01T21:40:25.046Z,91.36
2023-05-01T21:42:54.239Z,91.65
2023-05-01T21:45:21.321Z,92.12
2023-05-01T21:47:53.441Z,91.89
2023-05-01T21:50:21.451Z,92.36
2023-05-01T21:52:49.896Z,92.11
2023-05-01T21:55:21.860Z,92.19
2023-05-01T21:57:53.135Z,92.40
2023-05-01T22:00:21.136Z,92.99
2023-05-01T22:02:49.588Z,92.61
2023-05-01T22:05:19.921Z,93.02
2023-05-01T22:07:47.292Z,92.99
2023-05-01T22:10:17.878Z,93.40
2023-05-01T22:12:47.671Z,92.89
2023-05-01T22:15:15.707Z,93.23
2023-05-01T22:17:42.895Z,93.45
2023-05-01T22:20:10.099Z,93.47
2023-05-01T22:22:38.147Z,93.08
2023-05-01T22:25:05.496Z,92.80
2023-05-01T22:27:32.237Z,93.43
2023-05-01T22:29:59.521Z,93.09
2023-05-01T22:32:26.890Z,92.52
2023-05-01T22:34:53.625Z,92.61
2023-05-01T22:37:20.282Z,92.93
2023-05-01T22:39:46.901Z,92.18
2023-05-01T22:42:13.642Z,92.49
2023-05-01T22:44:40.875Z,92.66
2023-05-01T22:47:07.492Z,92.54
2023-05-01T22:49:34.154Z,92.46
2023-05-01T22:52:00.797Z,92.96
2023-05-01T22:54:27.464Z,92.86
2023-05-01T22:56:54.361Z,93.09
2023-05-01T22:59:21.839Z,93.19
2023-05-01T23:01:48.694Z,93.03
2023-05-01T23:04:15.700Z,92.61
2023-05-01T23:06:43.195Z,92.50
2023-05-01T23:09:10.012Z,92.71
2023-05-01T23:11:36.652Z,92.31
2023-05-01T23:14:03.577Z,92.47
2023-05-01T23:16:36.495Z,93.22
2023-05-01T23:19:03.822Z,92.91
2023-05-01T23:21:31.099Z,91.79
2023-05-01T23:23:57.788Z,91.25
2023-05-01T23:26:26.104Z,90.96
2023-05-01T23:28:53.514Z,91.67
2023-05-01T23:31:27.683Z,90.33
2023-05-01T23:33:55.374Z,91.11
2023-05-01T23:36:22.286Z,90.76
2023-05-01T23:38:49.628Z,90.42
2023-05-01T23:41:16.476Z,89.53
2023-05-01T23:43:46.548Z,89.97
2023-05-01T23:46:13.877Z,90.32
2023-05-01T23:48:41.365Z,91.26
2023-05-01T23:51:08.090Z,90.19
2023-05-01T23:53:34.857Z,91.24
2023-05-01T23:56:02.186Z,90.97
2023-05-01T23:58:28.739Z,91.26
